sensor_id;sensor_type;location;lat;lon;timestamp;pressure;altitude;pressure_sealevel;temperature
71564;BMP180;59391;52.504;13.438;2023-03-31T00:00:52;100128.00;;;15.20
71564;BMP180;59391;52.504;13.438;2023-03-31T00:03:18;100132.00;;;15.30
71564;BMP180;59391;52.504;13.438;2023-03-31T00:05:49;100122.00;;;15.20
71564;BMP180;59391;52.504;13.438;2023-03-31T00:08:19;100128.00;;;15.30
71564;BMP180;59391;52.504;13.438;2023-03-31T00:10:46;100128.00;;;15.30
71564;BMP180;59391;52.504;13.438;2023-03-31T00:13:12;100128.00;;;15.20
71564;BMP180;59391;52.504;13.438;2023-03-31T00:15:39;100121.00;;;15.20
71564;BMP180;59391;52.504;13.438;2023-03-31T00:18:05;100125.00;;;15.30
71564;BMP180;59391;52.504;13.438;2023-03-31T00:20:31;100117.00;;;15.30
71564;BMP180;59391;52.504;13.438;2023-03-31T00:22:58;100121.00;;;15.20
71564;BMP180;59391;52.504;13.438;2023-03-31T00:25:26;100106.00;;;15.20
71564;BMP180;59391;52.504;13.438;2023-03-31T00:27:52;100115.00;;;15.30
71564;BMP180;59391;52.504;13.438;2023-03-31T00:30:18;100113.00;;;15.20
71564;BMP180;59391;52.504;13.438;2023-03-31T00:32:44;100112.00;;;15.20
71564;BMP180;59391;52.504;13.438;2023-03-31T00:35:10;100114.00;;;15.20
71564;BMP180;59391;52.504;13.438;2023-03-31T00:37:36;100107.00;;;15.20
71564;BMP180;59391;52.504;13.438;2023-03-31T00:40:02;100107.00;;;15.00
71564;BMP180;59391;52.504;13.438;2023-03-31T00:42:42;100107.00;;;15.10
71564;BMP180;59391;52.504;13.438;2023-03-31T00:47:44;100099.00;;;15.10
71564;BMP180;59391;52.504;13.438;2023-03-31T00:50:22;100087.00;;;15.10
71564;BMP180;59391;52.504;13.438;2023-03-31T00:52:56;100091.00;;;15.10
71564;BMP180;59391;52.504;13.438;2023-03-31T00:55:33;100091.00;;;15.00
71564;BMP180;59391;52.504;13.438;2023-03-31T00:58:00;100092.00;;;14.90
71564;BMP180;59391;52.504;13.438;2023-03-31T01:00:26;100085.00;;;15.00
71564;BMP180;59391;52.504;13.438;2023-03-31T01:02:59;100087.00;;;14.90
71564;BMP180;59391;52.504;13.438;2023-03-31T01:05:49;100078.00;;;14.90
71564;BMP180;59391;52.504;13.438;2023-03-31T01:08:19;100082.00;;;14.90
71564;BMP180;59391;52.504;13.438;2023-03-31T01:10:57;100067.00;;;14.80
71564;BMP180;59391;52.504;13.438;2023-03-31T01:13:25;100065.00;;;14.80
71564;BMP180;59391;52.504;13.438;2023-03-31T01:15:52;100073.00;;;14.80
71564;BMP180;59391;52.504;13.438;2023-03-31T01:18:19;100057.00;;;14.80
71564;BMP180;59391;52.504;13.438;2023-03-31T01:30:50;100051.00;;;14.50
71564;BMP180;59391;52.504;13.438;2023-03-31T01:33:37;100049.00;;;14.50
71564;BMP180;59391;52.504;13.438;2023-03-31T01:36:52;100048.00;;;14.40
71564;BMP180;59391;52.504;13.438;2023-03-31T01:40:06;100043.00;;;14.40
71564;BMP180;59391;52.504;13.438;2023-03-31T01:43:09;100039.00;;;14.30
71564;BMP180;59391;52.504;13.438;2023-03-31T01:46:22;100042.00;;;14.30
71564;BMP180;59391;52.504;13.438;2023-03-31T01:49:54;100044.00;;;14.20
71564;BMP180;59391;52.504;13.438;2023-03-31T01:58:21;100030.00;;;14.20
71564;BMP180;59391;52.504;13.438;2023-03-31T02:01:02;100010.00;;;14.20
71564;BMP180;59391;52.504;13.438;2023-03-31T02:03:36;100027.00;;;14.30
71564;BMP180;59391;52.504;13.438;2023-03-31T02:06:18;100025.00;;;14.20
71564;BMP180;59391;52.504;13.438;2023-03-31T02:08:50;100014.00;;;14.20
71564;BMP180;59391;52.504;13.438;2023-03-31T02:11:20;100023.00;;;14.20
71564;BMP180;59391;52.504;13.438;2023-03-31T02:13:48;100013.00;;;14.20
71564;BMP180;59391;52.504;13.438;2023-03-31T02:16:24;100011.00;;;14.20
71564;BMP180;59391;52.504;13.438;2023-03-31T02:18:55;100013.00;;;14.20
71564;BMP180;59391;52.504;13.438;2023-03-31T02:21:31;99997.00;;;14.20
71564;BMP180;59391;52.504;13.438;2023-03-31T02:24:05;99990.00;;;14.20
71564;BMP180;59391;52.504;13.438;2023-03-31T02:26:40;99993.00;;;14.30
71564;BMP180;59391;52.504;13.438;2023-03-31T02:29:06;99998.00;;;14.30
71564;BMP180;59391;52.504;13.438;2023-03-31T02:31:46;99984.00;;;14.30
71564;BMP180;59391;52.504;13.438;2023-03-31T02:34:13;99987.00;;;14.20
71564;BMP180;59391;52.504;13.438;2023-03-31T02:36:41;99989.00;;;14.30
71564;BMP180;59391;52.504;13.438;2023-03-31T02:39:16;99991.00;;;14.20
71564;BMP180;59391;52.504;13.438;2023-03-31T02:41:43;99988.00;;;14.30
71564;BMP180;59391;52.504;13.438;2023-03-31T02:44:10;99973.00;;;14.30
71564;BMP180;59391;52.504;13.438;2023-03-31T02:46:36;99971.00;;;14.40
71564;BMP180;59391;52.504;13.438;2023-03-31T02:49:06;99968.00;;;14.30
71564;BMP180;59391;52.504;13.438;2023-03-31T02:55:20;99972.00;;;14.40
71564;BMP180;59391;52.504;13.438;2023-03-31T03:00:52;99957.00;;;14.40
71564;BMP180;59391;52.504;13.438;2023-03-31T03:04:00;99961.00;;;14.40
71564;BMP180;59391;52.504;13.438;2023-03-31T03:06:50;99957.00;;;14.40
71564;BMP180;59391;52.504;13.438;2023-03-31T03:09:39;99959.00;;;14.40
71564;BMP180;59391;52.504;13.438;2023-03-31T03:12:24;99954.00;;;14.40
71564;BMP180;59391;52.504;13.438;2023-03-31T03:15:16;99951.00;;;14.30
71564;BMP180;59391;52.504;13.438;2023-03-31T03:17:46;99951.00;;;14.40
71564;BMP180;59391;52.504;13.438;2023-03-31T03:20:14;99945.00;;;14.40
71564;BMP180;59391;52.504;13.438;2023-03-31T03:22:41;99944.00;;;14.40
71564;BMP180;59391;52.504;13.438;2023-03-31T03:25:09;99946.00;;;14.40
71564;BMP180;59391;52.504;13.438;2023-03-31T03:27:36;99939.00;;;14.40
71564;BMP180;59391;52.504;13.438;2023-03-31T03:30:05;99947.00;;;14.40
71564;BMP180;59391;52.504;13.438;2023-03-31T03:32:31;99938.00;;;14.50
71564;BMP180;59391;52.504;13.438;2023-03-31T03:34:59;99934.00;;;14.50
71564;BMP180;59391;52.504;13.438;2023-03-31T03:37:24;99932.00;;;14.50
71564;BMP180;59391;52.504;13.438;2023-03-31T03:39:50;99930.00;;;14.50
71564;BMP180;59391;52.504;13.438;2023-03-31T03:42:16;99922.00;;;14.50
71564;BMP180;59391;52.504;13.438;2023-03-31T03:44:41;99928.00;;;14.50
71564;BMP180;59391;52.504;13.438;2023-03-31T03:47:07;99910.00;;;14.50
71564;BMP180;59391;52.504;13.438;2023-03-31T03:49:33;99907.00;;;14.60
71564;BMP180;59391;52.504;13.438;2023-03-31T03:51:58;99910.00;;;14.60
71564;BMP180;59391;52.504;13.438;2023-03-31T03:54:24;99914.00;;;14.60
71564;BMP180;59391;52.504;13.438;2023-03-31T03:56:50;99914.00;;;14.60
71564;BMP180;59391;52.504;13.438;2023-03-31T03:59:15;99914.00;;;14.60
71564;BMP180;59391;52.504;13.438;2023-03-31T04:01:41;99896.00;;;14.60
71564;BMP180;59391;52.504;13.438;2023-03-31T04:04:07;99898.00;;;14.60
71564;BMP180;59391;52.504;13.438;2023-03-31T04:06:32;99901.00;;;14.60
71564;BMP180;59391;52.504;13.438;2023-03-31T04:08:58;99889.00;;;14.70
71564;BMP180;59391;52.504;13.438;2023-03-31T04:11:24;99895.00;;;14.70
71564;BMP180;59391;52.504;13.438;2023-03-31T04:13:50;99898.00;;;14.70
71564;BMP180;59391;52.504;13.438;2023-03-31T04:16:16;99894.00;;;14.70
71564;BMP180;59391;52.504;13.438;2023-03-31T04:18:42;99879.00;;;14.70
71564;BMP180;59391;52.504;13.438;2023-03-31T04:21:10;99892.00;;;14.70
71564;BMP180;59391;52.504;13.438;2023-03-31T04:23:51;99889.00;;;14.70
71564;BMP180;59391;52.504;13.438;2023-03-31T04:26:25;99885.00;;;14.70
71564;BMP180;59391;52.504;13.438;2023-03-31T04:29:05;99876.00;;;14.70
71564;BMP180;59391;52.504;13.438;2023-03-31T04:31:32;99870.00;;;14.70
71564;BMP180;59391;52.504;13.438;2023-03-31T04:33:58;99865.00;;;14.70
71564;BMP180;59391;52.504;13.438;2023-03-31T04:36:29;99863.00;;;14.70
71564;BMP180;59391;52.504;13.438;2023-03-31T04:38:56;99871.00;;;14.60
71564;BMP180;59391;52.504;13.438;2023-03-31T04:41:23;99858.00;;;14.60
71564;BMP180;59391;52.504;13.438;2023-03-31T04:43:49;99860.00;;;14.50
71564;BMP180;59391;52.504;13.438;2023-03-31T04:46:15;99856.00;;;14.60
71564;BMP180;59391;52.504;13.438;2023-03-31T04:48:41;99855.00;;;14.60
71564;BMP180;59391;52.504;13.438;2023-03-31T04:51:07;99842.00;;;14.60
71564;BMP180;59391;52.504;13.438;2023-03-31T04:53:34;99843.00;;;14.50
71564;BMP180;59391;52.504;13.438;2023-03-31T04:56:00;99857.00;;;14.50
71564;BMP180;59391;52.504;13.438;2023-03-31T04:58:26;99835.00;;;14.50
71564;BMP180;59391;52.504;13.438;2023-03-31T05:00:52;99844.00;;;14.50
71564;BMP180;59391;52.504;13.438;2023-03-31T05:03:18;99837.00;;;14.50
71564;BMP180;59391;52.504;13.438;2023-03-31T05:05:44;99842.00;;;14.50
71564;BMP180;59391;52.504;13.438;2023-03-31T05:08:10;99825.00;;;14.50
71564;BMP180;59391;52.504;13.438;2023-03-31T05:10:35;99832.00;;;14.50
71564;BMP180;59391;52.504;13.438;2023-03-31T05:13:02;99817.00;;;14.50
71564;BMP180;59391;52.504;13.438;2023-03-31T05:15:27;99812.00;;;14.50
71564;BMP180;59391;52.504;13.438;2023-03-31T05:17:53;99810.00;;;14.50
71564;BMP180;59391;52.504;13.438;2023-03-31T05:20:20;99810.00;;;14.40
71564;BMP180;59391;52.504;13.438;2023-03-31T05:22:46;99808.00;;;14.40
71564;BMP180;59391;52.504;13.438;2023-03-31T05:25:13;99798.00;;;14.40
71564;BMP180;59391;52.504;13.438;2023-03-31T05:27:45;99809.00;;;14.30
71564;BMP180;59391;52.504;13.438;2023-03-31T05:30:15;99801.00;;;14.40
71564;BMP180;59391;52.504;13.438;2023-03-31T05:32:41;99805.00;;;14.40
71564;BMP180;59391;52.504;13.438;2023-03-31T05:35:08;99805.00;;;14.40
71564;BMP180;59391;52.504;13.438;2023-03-31T05:37:34;99793.00;;;14.40
71564;BMP180;59391;52.504;13.438;2023-03-31T05:39:59;99793.00;;;14.40
71564;BMP180;59391;52.504;13.438;2023-03-31T05:42:25;99798.00;;;14.40
71564;BMP180;59391;52.504;13.438;2023-03-31T05:44:51;99786.00;;;14.40
71564;BMP180;59391;52.504;13.438;2023-03-31T05:47:17;99788.00;;;14.40
71564;BMP180;59391;52.504;13.438;2023-03-31T05:49:43;99788.00;;;14.40
71564;BMP180;59391;52.504;13.438;2023-03-31T05:52:09;99777.00;;;14.40
71564;BMP180;59391;52.504;13.438;2023-03-31T05:54:35;99776.00;;;14.50
71564;BMP180;59391;52.504;13.438;2023-03-31T05:57:02;99775.00;;;14.50
71564;BMP180;59391;52.504;13.438;2023-03-31T05:59:28;99775.00;;;14.50
71564;BMP180;59391;52.504;13.438;2023-03-31T06:01:54;99767.00;;;14.60
71564;BMP180;59391;52.504;13.438;2023-03-31T06:04:19;99764.00;;;14.60
71564;BMP180;59391;52.504;13.438;2023-03-31T06:06:45;99768.00;;;14.70
71564;BMP180;59391;52.504;13.438;2023-03-31T06:09:15;99771.00;;;14.50
71564;BMP180;59391;52.504;13.438;2023-03-31T06:11:40;99759.00;;;14.50
71564;BMP180;59391;52.504;13.438;2023-03-31T06:14:06;99759.00;;;14.60
71564;BMP180;59391;52.504;13.438;2023-03-31T06:16:32;99754.00;;;14.60
71564;BMP180;59391;52.504;13.438;2023-03-31T06:18:57;99750.00;;;14.70
71564;BMP180;59391;52.504;13.438;2023-03-31T06:21:23;99753.00;;;14.70
71564;BMP180;59391;52.504;13.438;2023-03-31T06:23:49;99742.00;;;14.60
71564;BMP180;59391;52.504;13.438;2023-03-31T06:26:19;99740.00;;;14.80
71564;BMP180;59391;52.504;13.438;2023-03-31T06:28:46;99748.00;;;14.90
71564;BMP180;59391;52.504;13.438;2023-03-31T06:31:15;99729.00;;;14.80
71564;BMP180;59391;52.504;13.438;2023-03-31T06:33:42;99740.00;;;14.70
71564;BMP180;59391;52.504;13.438;2023-03-31T06:36:10;99725.00;;;14.70
71564;BMP180;59391;52.504;13.438;2023-03-31T06:38:38;99732.00;;;14.80
71564;BMP180;59391;52.504;13.438;2023-03-31T06:41:10;99731.00;;;14.80
71564;BMP180;59391;52.504;13.438;2023-03-31T06:43:36;99730.00;;;14.90
71564;BMP180;59391;52.504;13.438;2023-03-31T06:46:02;99731.00;;;15.00
71564;BMP180;59391;52.504;13.438;2023-03-31T06:48:28;99732.00;;;14.90
71564;BMP180;59391;52.504;13.438;2023-03-31T06:50:58;99732.00;;;15.00
71564;BMP180;59391;52.504;13.438;2023-03-31T06:53:24;99722.00;;;15.10
71564;BMP180;59391;52.504;13.438;2023-03-31T06:55:50;99716.00;;;15.20
71564;BMP180;59391;52.504;13.438;2023-03-31T06:58:16;99707.00;;;15.30
71564;BMP180;59391;52.504;13.438;2023-03-31T07:00:42;99725.00;;;15.30
71564;BMP180;59391;52.504;13.438;2023-03-31T07:03:11;99703.00;;;15.30
71564;BMP180;59391;52.504;13.438;2023-03-31T07:05:36;99714.00;;;15.30
71564;BMP180;59391;52.504;13.438;2023-03-31T07:08:03;99725.00;;;15.40
71564;BMP180;59391;52.504;13.438;2023-03-31T07:10:31;99718.00;;;15.40
71564;BMP180;59391;52.504;13.438;2023-03-31T07:12:57;99706.00;;;15.60
71564;BMP180;59391;52.504;13.438;2023-03-31T07:15:24;99712.00;;;15.70
71564;BMP180;59391;52.504;13.438;2023-03-31T07:17:50;99712.00;;;15.80
71564;BMP180;59391;52.504;13.438;2023-03-31T07:20:19;99702.00;;;15.80
71564;BMP180;59391;52.504;13.438;2023-03-31T07:22:46;99694.00;;;15.80
71564;BMP180;59391;52.504;13.438;2023-03-31T07:25:15;99687.00;;;15.90
71564;BMP180;59391;52.504;13.438;2023-03-31T07:27:42;99692.00;;;16.00
71564;BMP180;59391;52.504;13.438;2023-03-31T07:30:16;99684.00;;;16.10
71564;BMP180;59391;52.504;13.438;2023-03-31T07:32:42;99692.00;;;16.20
71564;BMP180;59391;52.504;13.438;2023-03-31T07:35:10;99684.00;;;16.30
71564;BMP180;59391;52.504;13.438;2023-03-31T07:37:38;99689.00;;;16.30
71564;BMP180;59391;52.504;13.438;2023-03-31T07:40:09;99685.00;;;16.50
71564;BMP180;59391;52.504;13.438;2023-03-31T07:42:35;99685.00;;;16.60
71564;BMP180;59391;52.504;13.438;2023-03-31T07:45:01;99676.00;;;16.70
71564;BMP180;59391;52.504;13.438;2023-03-31T07:47:27;99668.00;;;16.80
71564;BMP180;59391;52.504;13.438;2023-03-31T07:49:53;99676.00;;;16.70
71564;BMP180;59391;52.504;13.438;2023-03-31T07:52:19;99670.00;;;16.70
71564;BMP180;59391;52.504;13.438;2023-03-31T07:54:45;99659.00;;;16.70
71564;BMP180;59391;52.504;13.438;2023-03-31T07:57:11;99656.00;;;16.80
71564;BMP180;59391;52.504;13.438;2023-03-31T07:59:37;99657.00;;;16.90
71564;BMP180;59391;52.504;13.438;2023-03-31T08:02:03;99658.00;;;17.10
71564;BMP180;59391;52.504;13.438;2023-03-31T08:04:28;99658.00;;;17.20
71564;BMP180;59391;52.504;13.438;2023-03-31T08:06:54;99654.00;;;17.20
71564;BMP180;59391;52.504;13.438;2023-03-31T08:09:20;99653.00;;;17.30
71564;BMP180;59391;52.504;13.438;2023-03-31T08:11:47;99646.00;;;17.40
71564;BMP180;59391;52.504;13.438;2023-03-31T08:14:13;99640.00;;;17.60
71564;BMP180;59391;52.504;13.438;2023-03-31T08:16:39;99635.00;;;17.60
71564;BMP180;59391;52.504;13.438;2023-03-31T08:19:05;99641.00;;;17.70
71564;BMP180;59391;52.504;13.438;2023-03-31T08:21:30;99643.00;;;17.80
71564;BMP180;59391;52.504;13.438;2023-03-31T08:23:57;99635.00;;;17.90
71564;BMP180;59391;52.504;13.438;2023-03-31T08:26:23;99638.00;;;18.00
71564;BMP180;59391;52.504;13.438;2023-03-31T08:28:50;99632.00;;;18.10
71564;BMP180;59391;52.504;13.438;2023-03-31T08:31:19;99629.00;;;18.00
71564;BMP180;59391;52.504;13.438;2023-03-31T08:33:46;99638.00;;;18.20
71564;BMP180;59391;52.504;13.438;2023-03-31T08:36:12;99628.00;;;18.40
71564;BMP180;59391;52.504;13.438;2023-03-31T08:38:41;99624.00;;;18.70
71564;BMP180;59391;52.504;13.438;2023-03-31T08:44:33;99613.00;;;19.40
71564;BMP180;59391;52.504;13.438;2023-03-31T08:47:02;99603.00;;;19.80
71564;BMP180;59391;52.504;13.438;2023-03-31T08:49:40;99596.00;;;20.00
71564;BMP180;59391;52.504;13.438;2023-03-31T08:52:14;99594.00;;;20.20
71564;BMP180;59391;52.504;13.438;2023-03-31T08:54:48;99598.00;;;20.00
71564;BMP180;59391;52.504;13.438;2023-03-31T08:57:25;99601.00;;;19.80
71564;BMP180;59391;52.504;13.438;2023-03-31T08:59:53;99587.00;;;19.60
71564;BMP180;59391;52.504;13.438;2023-03-31T09:02:50;99592.00;;;19.50
71564;BMP180;59391;52.504;13.438;2023-03-31T09:05:34;99599.00;;;19.40
71564;BMP180;59391;52.504;13.438;2023-03-31T09:08:41;99582.00;;;19.20
71564;BMP180;59391;52.504;13.438;2023-03-31T09:13:54;99577.00;;;19.20
71564;BMP180;59391;52.504;13.438;2023-03-31T09:16:38;99562.00;;;19.20
71564;BMP180;59391;52.504;13.438;2023-03-31T09:19:19;99572.00;;;19.20
71564;BMP180;59391;52.504;13.438;2023-03-31T09:21:51;99578.00;;;19.30
71564;BMP180;59391;52.504;13.438;2023-03-31T09:24:27;99556.00;;;19.50
71564;BMP180;59391;52.504;13.438;2023-03-31T09:27:00;99564.00;;;20.00
71564;BMP180;59391;52.504;13.438;2023-03-31T09:30:15;99546.00;;;20.30
71564;BMP180;59391;52.504;13.438;2023-03-31T09:32:44;99548.00;;;20.60
71564;BMP180;59391;52.504;13.438;2023-03-31T09:35:20;99543.00;;;21.20
71564;BMP180;59391;52.504;13.438;2023-03-31T09:37:48;99536.00;;;21.40
71564;BMP180;59391;52.504;13.438;2023-03-31T09:40:21;99518.00;;;21.30
71564;BMP180;59391;52.504;13.438;2023-03-31T09:43:06;99534.00;;;21.10
71564;BMP180;59391;52.504;13.438;2023-03-31T09:45:33;99530.00;;;20.90
71564;BMP180;59391;52.504;13.438;2023-03-31T09:48:11;99520.00;;;20.70
71564;BMP180;59391;52.504;13.438;2023-03-31T09:50:48;99512.00;;;20.40
71564;BMP180;59391;52.504;13.438;2023-03-31T09:53:31;99510.00;;;20.20
71564;BMP180;59391;52.504;13.438;2023-03-31T09:56:02;99510.00;;;20.10
71564;BMP180;59391;52.504;13.438;2023-03-31T09:58:29;99501.00;;;20.00
71564;BMP180;59391;52.504;13.438;2023-03-31T10:01:05;99501.00;;;19.90
71564;BMP180;59391;52.504;13.438;2023-03-31T10:03:32;99489.00;;;20.00
71564;BMP180;59391;52.504;13.438;2023-03-31T10:06:08;99497.00;;;19.90
71564;BMP180;59391;52.504;13.438;2023-03-31T10:08:53;99484.00;;;19.60
71564;BMP180;59391;52.504;13.438;2023-03-31T10:11:21;99473.00;;;19.60
71564;BMP180;59391;52.504;13.438;2023-03-31T10:14:13;99484.00;;;19.40
71564;BMP180;59391;52.504;13.438;2023-03-31T10:16:52;99483.00;;;19.30
71564;BMP180;59391;52.504;13.438;2023-03-31T10:19:28;99475.00;;;19.20
71564;BMP180;59391;52.504;13.438;2023-03-31T10:25:08;99463.00;;;19.20
71564;BMP180;59391;52.504;13.438;2023-03-31T10:27:38;99453.00;;;19.20
71564;BMP180;59391;52.504;13.438;2023-03-31T10:30:10;99459.00;;;19.20
71564;BMP180;59391;52.504;13.438;2023-03-31T10:32:41;99462.00;;;19.30
71564;BMP180;59391;52.504;13.438;2023-03-31T10:35:31;99457.00;;;19.10
71564;BMP180;59391;52.504;13.438;2023-03-31T10:38:14;99461.00;;;19.10
71564;BMP180;59391;52.504;13.438;2023-03-31T10:40:50;99455.00;;;19.00
71564;BMP180;59391;52.504;13.438;2023-03-31T10:43:19;99456.00;;;18.90
71564;BMP180;59391;52.504;13.438;2023-03-31T10:45:58;99449.00;;;18.90
71564;BMP180;59391;52.504;13.438;2023-03-31T10:48:36;99451.00;;;18.80
71564;BMP180;59391;52.504;13.438;2023-03-31T10:51:25;99454.00;;;18.60
71564;BMP180;59391;52.504;13.438;2023-03-31T10:53:55;99448.00;;;18.60
71564;BMP180;59391;52.504;13.438;2023-03-31T10:56:44;99446.00;;;18.40
71564;BMP180;59391;52.504;13.438;2023-03-31T10:59:48;99434.00;;;18.30
71564;BMP180;59391;52.504;13.438;2023-03-31T11:06:27;99441.00;;;17.30
71564;BMP180;59391;52.504;13.438;2023-03-31T11:12:12;99424.00;;;16.90
71564;BMP180;59391;52.504;13.438;2023-03-31T11:17:47;99426.00;;;16.90
71564;BMP180;59391;52.504;13.438;2023-03-31T11:23:52;99414.00;;;17.00
71564;BMP180;59391;52.504;13.438;2023-03-31T11:26:53;99410.00;;;17.00
71564;BMP180;59391;52.504;13.438;2023-03-31T11:29:48;99400.00;;;17.10
71564;BMP180;59391;52.504;13.438;2023-03-31T11:32:41;99403.00;;;17.10
71564;BMP180;59391;52.504;13.438;2023-03-31T11:41:50;99361.00;;;17.20
71564;BMP180;59391;52.504;13.438;2023-03-31T11:44:19;99365.00;;;17.20
71564;BMP180;59391;52.504;13.438;2023-03-31T11:46:56;99360.00;;;17.40
71564;BMP180;59391;52.504;13.438;2023-03-31T11:49:38;99359.00;;;17.50
71564;BMP180;59391;52.504;13.438;2023-03-31T11:52:14;99353.00;;;17.50
71564;BMP180;59391;52.504;13.438;2023-03-31T11:54:53;99355.00;;;17.70
71564;BMP180;59391;52.504;13.438;2023-03-31T11:57:34;99339.00;;;17.80
71564;BMP180;59391;52.504;13.438;2023-03-31T12:00:16;99344.00;;;17.90
71564;BMP180;59391;52.504;13.438;2023-03-31T12:03:18;99330.00;;;17.90
71564;BMP180;59391;52.504;13.438;2023-03-31T12:05:55;99322.00;;;18.00
71564;BMP180;59391;52.504;13.438;2023-03-31T12:08:36;99327.00;;;18.00
71564;BMP180;59391;52.504;13.438;2023-03-31T12:11:21;99318.00;;;17.90
71564;BMP180;59391;52.504;13.438;2023-03-31T12:14:26;99320.00;;;17.80
71564;BMP180;59391;52.504;13.438;2023-03-31T12:17:12;99308.00;;;17.80
71564;BMP180;59391;52.504;13.438;2023-03-31T12:20:22;99305.00;;;17.70
71564;BMP180;59391;52.504;13.438;2023-03-31T12:22:44;99294.00;;;17.80
71564;BMP180;59391;52.504;13.438;2023-03-31T12:25:19;99304.00;;;17.90
71564;BMP180;59391;52.504;13.438;2023-03-31T12:27:51;99284.00;;;18.20
71564;BMP180;59391;52.504;13.438;2023-03-31T12:30:34;99304.00;;;18.20
71564;BMP180;59391;52.504;13.438;2023-03-31T12:33:19;99288.00;;;18.40
71564;BMP180;59391;52.504;13.438;2023-03-31T12:36:32;99286.00;;;18.50
71564;BMP180;59391;52.504;13.438;2023-03-31T12:39:40;99276.00;;;18.50
71564;BMP180;59391;52.504;13.438;2023-03-31T12:42:40;99279.00;;;18.20
71564;BMP180;59391;52.504;13.438;2023-03-31T12:45:32;99276.00;;;18.10
71564;BMP180;59391;52.504;13.438;2023-03-31T12:48:25;99297.00;;;17.90
71564;BMP180;59391;52.504;13.438;2023-03-31T12:51:08;99288.00;;;17.40
71564;BMP180;59391;52.504;13.438;2023-03-31T12:54:13;99279.00;;;16.90
71564;BMP180;59391;52.504;13.438;2023-03-31T13:02:21;99286.00;;;16.00
71564;BMP180;59391;52.504;13.438;2023-03-31T13:04:47;99280.00;;;15.80
71564;BMP180;59391;52.504;13.438;2023-03-31T13:13:14;99276.00;;;15.10
71564;BMP180;59391;52.504;13.438;2023-03-31T13:15:55;99281.00;;;15.00
71564;BMP180;59391;52.504;13.438;2023-03-31T13:18:22;99270.00;;;14.90
71564;BMP180;59391;52.504;13.438;2023-03-31T13:21:05;99274.00;;;14.80
71564;BMP180;59391;52.504;13.438;2023-03-31T13:23:34;99266.00;;;14.70
71564;BMP180;59391;52.504;13.438;2023-03-31T13:26:01;99264.00;;;14.70
71564;BMP180;59391;52.504;13.438;2023-03-31T13:28:37;99257.00;;;14.50
71564;BMP180;59391;52.504;13.438;2023-03-31T13:31:08;99262.00;;;14.40
71564;BMP180;59391;52.504;13.438;2023-03-31T13:36:53;99262.00;;;14.60
71564;BMP180;59391;52.504;13.438;2023-03-31T13:42:48;99240.00;;;14.50
71564;BMP180;59391;52.504;13.438;2023-03-31T13:45:56;99266.00;;;14.40
71564;BMP180;59391;52.504;13.438;2023-03-31T13:48:43;99253.00;;;14.30
71564;BMP180;59391;52.504;13.438;2023-03-31T13:51:39;99262.00;;;14.20
71564;BMP180;59391;52.504;13.438;2023-03-31T14:00:37;99269.00;;;13.90
71564;BMP180;59391;52.504;13.438;2023-03-31T14:03:46;99252.00;;;13.90
71564;BMP180;59391;52.504;13.438;2023-03-31T14:06:52;99254.00;;;13.80
71564;BMP180;59391;52.504;13.438;2023-03-31T14:09:35;99254.00;;;13.80
71564;BMP180;59391;52.504;13.438;2023-03-31T14:12:30;99274.00;;;13.80
71564;BMP180;59391;52.504;13.438;2023-03-31T14:14:56;99253.00;;;13.80
71564;BMP180;59391;52.504;13.438;2023-03-31T14:17:42;99256.00;;;13.80
71564;BMP180;59391;52.504;13.438;2023-03-31T14:20:28;99255.00;;;13.80
71564;BMP180;59391;52.504;13.438;2023-03-31T14:23:21;99258.00;;;13.80
71564;BMP180;59391;52.504;13.438;2023-03-31T14:26:10;99255.00;;;13.70
71564;BMP180;59391;52.504;13.438;2023-03-31T14:29:39;99250.00;;;13.70
71564;BMP180;59391;52.504;13.438;2023-03-31T14:32:59;99253.00;;;13.70
71564;BMP180;59391;52.504;13.438;2023-03-31T14:35:42;99248.00;;;13.60
71564;BMP180;59391;52.504;13.438;2023-03-31T14:38:18;99252.00;;;13.50
71564;BMP180;59391;52.504;13.438;2023-03-31T14:40:52;99238.00;;;13.50
71564;BMP180;59391;52.504;13.438;2023-03-31T14:43:34;99253.00;;;13.50
71564;BMP180;59391;52.504;13.438;2023-03-31T14:46:06;99246.00;;;13.50
71564;BMP180;59391;52.504;13.438;2023-03-31T14:48:40;99245.00;;;13.50
71564;BMP180;59391;52.504;13.438;2023-03-31T14:51:12;99238.00;;;13.60
71564;BMP180;59391;52.504;13.438;2023-03-31T14:53:38;99228.00;;;13.70
71564;BMP180;59391;52.504;13.438;2023-03-31T14:56:09;99235.00;;;13.60
71564;BMP180;59391;52.504;13.438;2023-03-31T14:58:42;99228.00;;;13.60
71564;BMP180;59391;52.504;13.438;2023-03-31T15:01:17;99235.00;;;13.70
71564;BMP180;59391;52.504;13.438;2023-03-31T15:03:45;99220.00;;;13.70
71564;BMP180;59391;52.504;13.438;2023-03-31T15:06:12;99222.00;;;13.80
71564;BMP180;59391;52.504;13.438;2023-03-31T15:08:39;99225.00;;;13.90
71564;BMP180;59391;52.504;13.438;2023-03-31T15:11:09;99220.00;;;13.90
71564;BMP180;59391;52.504;13.438;2023-03-31T15:13:42;99228.00;;;14.00
71564;BMP180;59391;52.504;13.438;2023-03-31T15:16:42;99225.00;;;13.90
71564;BMP180;59391;52.504;13.438;2023-03-31T15:19:27;99231.00;;;13.90
71564;BMP180;59391;52.504;13.438;2023-03-31T15:21:58;99225.00;;;13.90
71564;BMP180;59391;52.504;13.438;2023-03-31T15:24:29;99225.00;;;13.90
71564;BMP180;59391;52.504;13.438;2023-03-31T15:26:59;99222.00;;;13.90
71564;BMP180;59391;52.504;13.438;2023-03-31T15:29:37;99220.00;;;14.00
71564;BMP180;59391;52.504;13.438;2023-03-31T15:32:14;99213.00;;;14.00
71564;BMP180;59391;52.504;13.438;2023-03-31T15:34:42;99213.00;;;14.00
71564;BMP180;59391;52.504;13.438;2023-03-31T15:37:08;99211.00;;;14.00
71564;BMP180;59391;52.504;13.438;2023-03-31T15:39:36;99223.00;;;14.00
71564;BMP180;59391;52.504;13.438;2023-03-31T15:42:04;99217.00;;;14.00
71564;BMP180;59391;52.504;13.438;2023-03-31T15:44:54;99215.00;;;14.00
71564;BMP180;59391;52.504;13.438;2023-03-31T15:47:26;99218.00;;;14.00
71564;BMP180;59391;52.504;13.438;2023-03-31T15:52:45;99211.00;;;14.10
71564;BMP180;59391;52.504;13.438;2023-03-31T15:55:38;99216.00;;;14.10